createdAt,value
2019-06-07T00:00:45.833Z,23.55
2019-06-07T00:03:26.618Z,22.70
2019-06-07T00:05:47.137Z,25.00
2019-06-07T00:08:24.913Z,23.95
2019-06-07T00:10:48.304Z,24.60
2019-06-07T00:13:20.198Z,21.87
2019-06-07T00:15:49.078Z,24.25
2019-06-07T00:18:25.366Z,21.75
2019-06-07T00:20:50.108Z,24.30
2019-06-07T00:23:22.187Z,23.27
2019-06-07T00:25:51.164Z,21.57
2019-06-07T00:28:20.800Z,23.83
2019-06-07T00:30:52.167Z,26.23
2019-06-07T00:33:24.748Z,29.20
2019-06-07T00:35:53.231Z,26.20
2019-06-07T00:38:22.803Z,27.15
2019-06-07T00:40:52.374Z,26.80
2019-06-07T00:43:28.030Z,26.67
2019-06-07T00:45:53.052Z,34.47
2019-06-07T00:48:30.929Z,31.70
2019-06-07T00:50:53.752Z,28.50
2019-06-07T00:53:31.642Z,34.53
2019-06-07T00:55:54.423Z,29.37
2019-06-07T00:58:27.514Z,31.65
2019-06-07T01:00:55.043Z,32.25
2019-06-07T01:03:25.907Z,31.45
2019-06-07T01:05:55.637Z,33.85
2019-06-07T01:08:29.775Z,30.35
2019-06-07T01:10:56.254Z,31.60
2019-06-07T01:13:26.964Z,31.25
2019-06-07T01:15:56.774Z,28.40
2019-06-07T01:18:37.393Z,32.42
2019-06-07T01:20:57.484Z,36.80
2019-06-07T01:25:58.408Z,30.53
2019-06-07T01:28:30.182Z,31.87
2019-06-07T01:30:59.199Z,32.23
2019-06-07T01:33:48.584Z,31.57
2019-06-07T01:35:59.850Z,31.87
2019-06-07T01:38:30.120Z,32.30
2019-06-07T01:40:59.870Z,31.52
2019-06-07T01:43:31.086Z,32.48
2019-06-07T01:46:00.634Z,36.23
2019-06-07T01:48:48.534Z,32.05
2019-06-07T01:51:01.407Z,32.67
2019-06-07T01:53:31.598Z,42.20
2019-06-07T01:56:01.409Z,35.23
2019-06-07T01:58:30.898Z,35.50
2019-06-07T02:01:00.678Z,35.33
2019-06-07T02:03:33.328Z,36.93
2019-06-07T02:06:01.389Z,30.00
2019-06-07T02:08:34.196Z,34.75
2019-06-07T02:11:02.094Z,30.80
2019-06-07T02:13:31.640Z,33.88
2019-06-07T02:16:01.205Z,40.03
2019-06-07T02:18:34.656Z,32.13
2019-06-07T02:21:01.983Z,32.93
2019-06-07T02:23:33.616Z,26.10
2019-06-07T02:26:02.871Z,21.83
2019-06-07T02:28:44.183Z,29.53
2019-06-07T02:31:03.543Z,35.33
2019-06-07T02:33:39.609Z,36.30
2019-06-07T02:36:04.383Z,35.07
2019-06-07T02:38:37.276Z,35.60
2019-06-07T02:41:05.156Z,35.45
2019-06-07T02:43:37.190Z,36.13
2019-06-07T02:46:28.147Z,36.33
2019-06-07T02:48:43.863Z,35.75
2019-06-07T02:51:13.351Z,38.23
2019-06-07T02:53:42.940Z,35.27
2019-06-07T02:56:37.294Z,35.35
2019-06-07T02:58:43.754Z,35.40
2019-06-07T03:01:13.319Z,36.15
2019-06-07T03:03:42.916Z,35.53
2019-06-07T03:06:15.387Z,35.60
2019-06-07T03:08:47.034Z,36.08
2019-06-07T03:11:17.270Z,35.85
2019-06-07T03:13:48.939Z,34.92
2019-06-07T03:16:26.184Z,35.55
2019-06-07T03:19:06.251Z,33.92
2019-06-07T03:21:41.699Z,35.53
2019-06-07T03:24:11.431Z,34.43
2019-06-07T03:27:31.744Z,39.37
2019-06-07T03:29:12.565Z,37.78
2019-06-07T03:31:47.600Z,38.50
2019-06-07T03:34:13.286Z,36.30
2019-06-07T03:36:42.746Z,36.13
2019-06-07T03:39:54.574Z,38.60
2019-06-07T03:42:24.094Z,34.47
2019-06-07T03:44:53.559Z,35.17
2019-06-07T03:47:23.149Z,31.97
2019-06-07T03:49:52.723Z,32.30
2019-06-07T03:52:22.260Z,36.38
2019-06-07T03:54:51.910Z,31.77
2019-06-07T03:57:21.543Z,31.87
2019-06-07T03:59:50.988Z,30.75
2019-06-07T04:02:20.573Z,29.10
2019-06-07T04:04:50.113Z,32.10
2019-06-07T04:07:19.642Z,29.57
2019-06-07T04:09:49.255Z,29.95
2019-06-07T04:12:18.763Z,30.37
2019-06-07T04:14:48.322Z,29.73
2019-06-07T04:17:17.778Z,28.87
2019-06-07T04:19:47.386Z,33.15
2019-06-07T04:22:16.959Z,24.80
2019-06-07T04:24:46.560Z,32.53
2019-06-07T04:27:16.015Z,27.40
2019-06-07T04:30:05.394Z,25.10
2019-06-07T04:32:18.037Z,25.57
2019-06-07T04:34:47.557Z,29.35
2019-06-07T04:37:17.907Z,27.02
2019-06-07T04:39:48.312Z,29.27
2019-06-07T04:42:20.101Z,25.23
2019-06-07T04:44:51.932Z,25.68
2019-06-07T04:47:24.038Z,27.45
2019-06-07T04:49:54.951Z,26.07
2019-06-07T04:52:24.559Z,23.85
2019-06-07T04:54:54.153Z,26.30
2019-06-07T04:57:23.717Z,24.57
2019-06-07T05:00:12.103Z,23.50
2019-06-07T05:02:24.470Z,24.13
2019-06-07T05:04:53.996Z,24.80
2019-06-07T05:07:23.462Z,24.25
2019-06-07T05:09:53.608Z,26.27
2019-06-07T05:12:23.087Z,24.65
2019-06-07T05:14:52.671Z,26.10
2019-06-07T05:17:22.306Z,28.45
2019-06-07T05:19:51.833Z,29.15
2019-06-07T05:22:21.351Z,26.65
2019-06-07T05:24:50.876Z,31.33
2019-06-07T05:27:20.532Z,26.80
2019-06-07T05:30:08.899Z,26.37
2019-06-07T05:32:22.825Z,23.87
2019-06-07T05:34:52.218Z,26.73
2019-06-07T05:37:21.601Z,22.70
2019-06-07T05:39:50.993Z,16.07
2019-06-07T05:42:20.324Z,15.38
2019-06-07T05:44:49.765Z,15.00
2019-06-07T05:47:19.278Z,15.93
2019-06-07T05:49:48.622Z,17.27
2019-06-07T05:52:18.085Z,18.48
2019-06-07T05:54:47.533Z,16.87
2019-06-07T05:57:16.891Z,16.30
2019-06-07T05:59:47.450Z,17.45
2019-06-07T06:02:22.796Z,15.43
2019-06-07T06:04:49.447Z,17.45
2019-06-07T06:07:18.968Z,15.25
2019-06-07T06:09:48.438Z,15.13
2019-06-07T06:12:34.035Z,17.42
2019-06-07T06:14:49.379Z,17.25
2019-06-07T06:17:18.834Z,17.85
2019-06-07T06:19:52.953Z,20.00
2019-06-07T06:22:19.825Z,15.35
2019-06-07T06:25:30.051Z,17.52
2019-06-07T06:28:02.748Z,16.23
2019-06-07T06:29:52.480Z,15.68
2019-06-07T06:34:55.957Z,14.47
2019-06-07T06:37:25.495Z,13.48
2019-06-07T06:39:54.888Z,13.80
2019-06-07T06:42:24.233Z,13.62
2019-06-07T06:44:54.303Z,12.75
2019-06-07T06:47:23.889Z,12.82
2019-06-07T06:49:54.294Z,13.20
2019-06-07T06:52:24.330Z,10.55
2019-06-07T06:54:59.941Z,14.18
2019-06-07T06:57:24.882Z,12.85
2019-06-07T06:59:54.301Z,14.13
2019-06-07T07:02:23.727Z,16.40
2019-06-07T07:04:54.100Z,13.15
2019-06-07T07:07:24.098Z,12.53
2019-06-07T07:09:59.080Z,15.28
2019-06-07T07:12:24.891Z,14.47
2019-06-07T07:14:59.622Z,14.15
2019-06-07T07:17:47.759Z,13.30
2019-06-07T07:20:00.245Z,13.65
2019-06-07T07:22:35.592Z,14.85
2019-06-07T07:25:05.939Z,16.48
2019-06-07T07:27:39.641Z,13.72
2019-06-07T07:30:36.089Z,16.32
2019-06-07T07:32:54.143Z,13.53
2019-06-07T07:35:27.235Z,15.48
2019-06-07T07:37:59.783Z,13.20
2019-06-07T07:40:57.067Z,14.33
2019-06-07T07:43:18.727Z,14.10
2019-06-07T07:46:28.592Z,12.82
2019-06-07T07:48:41.475Z,12.15
2019-06-07T07:51:21.278Z,11.50
2019-06-07T07:54:02.085Z,13.80
2019-06-07T07:56:58.891Z,12.43
2019-06-07T07:59:42.229Z,12.10
2019-06-07T08:02:13.947Z,12.85
2019-06-07T08:05:13.474Z,11.30
2019-06-07T08:07:18.732Z,11.53
2019-06-07T08:09:57.716Z,11.83
2019-06-07T08:12:54.731Z,12.00
2019-06-07T08:15:11.771Z,11.33
2019-06-07T08:17:43.740Z,11.65
2019-06-07T08:20:15.131Z,10.75
2019-06-07T08:22:59.685Z,12.88
2019-06-07T08:25:28.414Z,11.28
2019-06-07T08:28:02.396Z,13.65
2019-06-07T08:30:55.024Z,18.77
2019-06-07T08:33:25.565Z,12.90
2019-06-07T08:36:06.007Z,12.15
2019-06-07T08:38:27.421Z,10.85
2019-06-07T08:40:54.584Z,10.70
2019-06-07T08:43:22.295Z,9.05
2019-06-07T08:45:58.358Z,8.95
2019-06-07T08:48:27.734Z,12.43
2019-06-07T08:50:55.336Z,9.38
2019-06-07T08:53:24.789Z,8.15
2019-06-07T08:55:58.761Z,8.75
2019-06-07T08:58:26.460Z,7.95
2019-06-07T09:00:59.383Z,9.53
2019-06-07T09:03:28.121Z,8.55
2019-06-07T09:06:06.077Z,9.35
2019-06-07T09:08:30.938Z,10.40
2019-06-07T09:11:05.303Z,7.28
2019-06-07T09:13:33.322Z,8.95
2019-06-07T09:16:08.271Z,9.78
2019-06-07T09:18:42.767Z,8.45
2019-06-07T09:21:09.602Z,9.13
2019-06-07T09:23:42.049Z,7.58
2019-06-07T09:26:18.324Z,8.65
2019-06-07T09:28:51.965Z,8.78
2019-06-07T09:31:25.467Z,8.38
2019-06-07T09:34:09.732Z,7.50
2019-06-07T09:36:35.879Z,8.33
2019-06-07T09:39:12.683Z,7.65
2019-06-07T09:41:50.433Z,6.12
2019-06-07T09:44:31.409Z,9.25
2019-06-07T09:47:29.572Z,7.55
2019-06-07T09:49:35.228Z,8.33
2019-06-07T09:52:11.221Z,8.15
2019-06-07T09:55:10.033Z,8.90
2019-06-07T09:57:27.512Z,8.60
2019-06-07T10:00:10.435Z,8.03
2019-06-07T10:02:36.087Z,6.45
2019-06-07T10:05:13.992Z,7.15
2019-06-07T10:08:02.409Z,9.05
2019-06-07T10:10:42.833Z,7.42
2019-06-07T10:12:56.955Z,6.60
2019-06-07T10:15:29.898Z,8.33
2019-06-07T10:18:03.116Z,5.87
2019-06-07T10:20:36.574Z,6.12
2019-06-07T10:23:18.241Z,5.30
2019-06-07T10:26:01.963Z,4.97
2019-06-07T10:28:37.550Z,6.50
2019-06-07T10:31:23.698Z,5.55
2019-06-07T10:33:53.162Z,6.10
2019-06-07T10:36:22.520Z,6.65
2019-06-07T10:38:51.916Z,5.45
2019-06-07T10:41:21.759Z,6.30
2019-06-07T10:43:51.450Z,6.28
2019-06-07T10:46:21.253Z,5.37
2019-06-07T10:48:51.090Z,8.03
2019-06-07T10:51:20.846Z,4.80
2019-06-07T10:53:50.638Z,6.45
2019-06-07T10:56:20.397Z,4.45
2019-06-07T10:58:51.162Z,5.80
2019-06-07T11:01:21.183Z,5.03
2019-06-07T11:03:51.258Z,4.33
2019-06-07T11:06:20.692Z,8.83
2019-06-07T11:08:51.274Z,4.87
2019-06-07T11:11:20.820Z,8.18
2019-06-07T11:13:52.486Z,5.37
2019-06-07T11:16:21.596Z,5.42
2019-06-07T11:18:51.090Z,5.62
2019-06-07T11:21:21.218Z,4.33
2019-06-07T11:23:51.110Z,4.15
2019-06-07T11:26:20.787Z,3.85
2019-06-07T11:29:09.385Z,6.12
2019-06-07T11:31:40.898Z,5.40
2019-06-07T11:34:10.621Z,6.78
2019-06-07T11:36:42.030Z,5.00
2019-06-07T11:39:12.804Z,7.25
2019-06-07T11:41:42.397Z,6.78
2019-06-07T11:44:12.966Z,5.47
2019-06-07T11:46:42.594Z,7.08
2019-06-07T11:49:13.088Z,5.47
2019-06-07T11:51:43.261Z,4.97
2019-06-07T11:54:14.034Z,6.30
2019-06-07T11:56:43.695Z,6.22
2019-06-07T11:59:13.407Z,6.90
2019-06-07T12:01:42.933Z,5.92
2019-06-07T12:04:14.024Z,4.25
2019-06-07T12:06:43.765Z,4.83
2019-06-07T12:09:14.484Z,4.25
2019-06-07T12:11:43.978Z,3.95
2019-06-07T12:14:14.620Z,5.22
2019-06-07T12:16:44.191Z,5.47
2019-06-07T12:19:13.653Z,3.75
2019-06-07T12:21:43.076Z,3.55
2019-06-07T12:24:12.474Z,5.45
2019-06-07T12:26:41.926Z,5.53
2019-06-07T12:29:12.776Z,5.97
2019-06-07T12:31:42.655Z,5.60
2019-06-07T12:34:13.260Z,4.85
2019-06-07T12:36:42.728Z,6.83
2019-06-07T12:39:12.145Z,7.12
2019-06-07T12:41:41.563Z,4.75
2019-06-07T12:44:12.489Z,7.65
2019-06-07T12:46:41.934Z,4.58
2019-06-07T12:49:11.273Z,3.37
2019-06-07T12:51:40.705Z,7.08
2019-06-07T12:54:10.142Z,3.55
2019-06-07T12:56:39.524Z,3.55
2019-06-07T12:59:08.910Z,5.45
2019-06-07T13:01:38.439Z,5.65
2019-06-07T13:04:07.850Z,4.40
2019-06-07T13:06:37.623Z,3.92
2019-06-07T13:09:07.614Z,3.90
2019-06-07T13:11:37.084Z,5.67
2019-06-07T13:14:06.802Z,3.83
2019-06-07T13:16:36.217Z,4.87
2019-06-07T13:19:07.948Z,6.60
2019-06-07T13:21:37.386Z,5.97
2019-06-07T13:24:06.835Z,3.47
2019-06-07T13:26:36.230Z,4.20
2019-06-07T13:29:05.818Z,4.95
2019-06-07T13:31:35.513Z,3.95
2019-06-07T13:34:05.668Z,6.35
2019-06-07T13:36:35.045Z,4.35
2019-06-07T13:39:06.365Z,8.28
2019-06-07T13:41:42.469Z,4.60
2019-06-07T13:44:06.980Z,4.03
2019-06-07T13:46:38.254Z,5.00
2019-06-07T13:49:07.920Z,6.75
2019-06-07T13:51:37.373Z,3.80
2019-06-07T13:54:06.809Z,4.03
2019-06-07T13:56:36.308Z,5.30
2019-06-07T13:59:13.708Z,6.50
2019-06-07T14:01:43.673Z,5.58
2019-06-07T14:04:16.836Z,5.83
2019-06-07T14:06:58.491Z,6.80
2019-06-07T14:09:40.494Z,5.83
2019-06-07T14:12:24.082Z,5.60
2019-06-07T14:19:13.222Z,5.10
2019-06-07T14:21:43.010Z,5.50
2019-06-07T14:24:13.198Z,9.78
2019-06-07T14:26:44.760Z,6.53
2019-06-07T14:29:14.076Z,6.95
2019-06-07T14:31:43.451Z,8.95
2019-06-07T14:34:12.873Z,6.37
2019-06-07T14:36:42.320Z,6.37
2019-06-07T14:39:11.707Z,6.45
2019-06-07T14:41:41.064Z,4.62
2019-06-07T14:44:10.378Z,6.25
2019-06-07T14:46:39.845Z,5.50
2019-06-07T14:49:09.521Z,4.97
2019-06-07T14:51:51.352Z,4.55
2019-06-07T14:55:31.230Z,4.55
2019-06-07T14:58:00.882Z,4.75
2019-06-07T15:00:42.726Z,4.22
2019-06-07T15:03:12.319Z,5.47
2019-06-07T15:05:41.659Z,5.53
2019-06-07T15:08:11.065Z,4.95
2019-06-07T15:10:40.463Z,4.80
2019-06-07T15:13:10.585Z,4.78
2019-06-07T15:15:40.038Z,5.28
2019-06-07T15:18:09.562Z,7.05
2019-06-07T15:20:38.922Z,4.85
2019-06-07T15:23:08.652Z,5.67
2019-06-07T15:25:39.636Z,4.47
2019-06-07T15:28:11.293Z,6.20
2019-06-07T15:30:40.838Z,4.95
2019-06-07T15:33:10.247Z,5.53
2019-06-07T15:35:39.763Z,5.62
2019-06-07T15:38:09.204Z,5.58
2019-06-07T15:40:39.694Z,5.00
2019-06-07T15:43:09.297Z,5.20
2019-06-07T15:45:41.727Z,10.65
2019-06-07T15:48:11.146Z,5.08
2019-06-07T15:50:40.594Z,5.47
2019-06-07T15:53:09.990Z,7.35
2019-06-07T15:55:43.841Z,7.90
2019-06-07T15:58:10.516Z,6.22
2019-06-07T16:00:41.064Z,8.13
2019-06-07T16:03:11.052Z,7.85
2019-06-07T16:05:40.634Z,6.28
2019-06-07T16:08:10.167Z,6.35
2019-06-07T16:10:40.948Z,6.00
2019-06-07T16:13:10.502Z,5.92
2019-06-07T16:15:41.256Z,6.30
2019-06-07T16:18:13.750Z,5.30
2019-06-07T16:20:43.792Z,7.05
2019-06-07T16:23:13.260Z,5.30
2019-06-07T16:25:44.242Z,5.10
2019-06-07T16:28:13.831Z,4.12
2019-06-07T16:30:43.293Z,5.87
2019-06-07T16:33:12.761Z,5.15
2019-06-07T16:35:43.217Z,5.78
2019-06-07T16:38:12.676Z,4.83
2019-06-07T16:40:42.415Z,5.17
2019-06-07T16:43:17.897Z,4.33
2019-06-07T16:45:43.080Z,4.67
2019-06-07T16:48:12.570Z,3.58
2019-06-07T16:50:42.974Z,5.80
2019-06-07T16:53:12.584Z,3.70
2019-06-07T16:55:42.747Z,4.03
2019-06-07T16:58:12.377Z,6.22
2019-06-07T17:00:42.281Z,5.33
2019-06-07T17:03:11.769Z,4.67
2019-06-07T17:05:45.057Z,4.85
2019-06-07T17:08:12.220Z,2.35
2019-06-07T17:10:42.559Z,6.58
2019-06-07T17:13:12.475Z,3.45
2019-06-07T17:15:42.757Z,2.30
2019-06-07T17:18:12.118Z,5.67
2019-06-07T17:20:41.443Z,4.03
2019-06-07T17:23:10.829Z,3.55
2019-06-07T17:25:41.369Z,3.50
2019-06-07T17:28:10.833Z,1.62
2019-06-07T17:30:41.700Z,3.80
2019-06-07T17:33:11.481Z,4.37
2019-06-07T17:35:42.126Z,5.53
2019-06-07T17:38:15.021Z,3.70
2019-06-07T17:40:51.350Z,4.42
2019-06-07T17:43:20.950Z,5.50
2019-06-07T17:46:26.886Z,2.87
2019-06-07T17:48:56.451Z,4.92
2019-06-07T17:51:26.825Z,1.15
2019-06-07T17:53:56.423Z,2.83
2019-06-07T17:56:25.903Z,4.58
2019-06-07T17:58:55.416Z,3.35
2019-06-07T18:01:38.441Z,2.22
2019-06-07T18:03:56.404Z,3.00
2019-06-07T18:06:26.264Z,1.77
2019-06-07T18:08:56.489Z,2.33
2019-06-07T18:11:26.099Z,3.30
2019-06-07T18:14:09.373Z,1.62
2019-06-07T18:16:26.825Z,2.65
2019-06-07T18:18:56.570Z,1.00
2019-06-07T18:21:26.151Z,1.15
2019-06-07T18:23:56.160Z,1.10
2019-06-07T18:26:25.739Z,3.00
2019-06-07T18:28:55.835Z,1.62
2019-06-07T18:31:25.546Z,1.22
2019-06-07T18:33:55.115Z,4.97
2019-06-07T18:36:25.125Z,1.07
2019-06-07T18:38:55.107Z,3.35
2019-06-07T18:41:24.981Z,1.20
2019-06-07T18:43:55.362Z,1.57
2019-06-07T18:46:25.031Z,3.05
2019-06-07T18:48:54.746Z,1.00
2019-06-07T18:51:24.451Z,0.80
2019-06-07T18:53:55.729Z,0.88
2019-06-07T18:56:28.091Z,2.60
2019-06-07T18:58:57.629Z,6.75
2019-06-07T19:01:27.566Z,0.60
2019-06-07T19:03:58.214Z,0.53
2019-06-07T19:06:27.840Z,2.83
2019-06-07T19:08:58.485Z,1.82
2019-06-07T19:11:28.581Z,2.42
2019-06-07T19:13:59.295Z,1.27
2019-06-07T19:16:28.921Z,3.72
2019-06-07T19:18:58.460Z,3.92
2019-06-07T19:21:28.315Z,5.53
2019-06-07T19:23:58.085Z,2.33
2019-06-07T19:26:27.985Z,1.32
2019-06-07T19:28:58.773Z,1.80
2019-06-07T19:31:28.459Z,5.20
2019-06-07T19:33:59.289Z,2.70
2019-06-07T19:36:28.943Z,2.25
2019-06-07T19:38:59.922Z,4.10
2019-06-07T19:41:29.655Z,3.05
2019-06-07T19:44:00.300Z,3.52
2019-06-07T19:46:30.064Z,7.28
2019-06-07T19:49:00.759Z,1.98
2019-06-07T19:51:30.898Z,1.72
2019-06-07T19:54:01.771Z,3.15
2019-06-07T19:56:31.816Z,1.12
2019-06-07T19:59:01.915Z,1.67
2019-06-07T20:01:31.592Z,2.00
2019-06-07T20:04:02.407Z,6.47
2019-06-07T20:06:32.400Z,2.77
2019-06-07T20:09:02.926Z,2.55
2019-06-07T20:11:32.711Z,3.90
2019-06-07T20:14:03.261Z,2.45
2019-06-07T20:16:33.044Z,2.35
2019-06-07T20:19:03.540Z,4.53
2019-06-07T20:21:33.901Z,3.08
2019-06-07T20:24:22.548Z,2.00
2019-06-07T20:26:34.712Z,3.47
2019-06-07T20:29:25.352Z,2.02
2019-06-07T20:31:42.487Z,3.08
2019-06-07T20:34:12.090Z,2.40
2019-06-07T20:36:41.742Z,5.37
2019-06-07T20:39:11.387Z,3.08
2019-06-07T20:41:40.989Z,4.65
2019-06-07T20:44:10.614Z,2.60
2019-06-07T20:46:40.363Z,4.10
2019-06-07T20:49:09.996Z,5.78
2019-06-07T20:51:39.720Z,3.00
2019-06-07T20:54:09.251Z,3.17
2019-06-07T20:56:39.332Z,3.67
2019-06-07T20:59:08.974Z,4.87
2019-06-07T21:01:38.503Z,7.45
2019-06-07T21:04:09.153Z,6.03
2019-06-07T21:06:38.662Z,3.75
2019-06-07T21:09:09.722Z,3.87
2019-06-07T21:11:39.299Z,4.55
2019-06-07T21:14:08.786Z,2.77
2019-06-07T21:16:38.400Z,2.95
2019-06-07T21:19:08.323Z,5.62
2019-06-07T21:21:37.907Z,3.65
2019-06-07T21:24:08.471Z,6.95
2019-06-07T21:26:38.363Z,3.92
2019-06-07T21:29:07.849Z,2.75
2019-06-07T21:31:37.422Z,3.20
2019-06-07T21:34:10.628Z,4.80
2019-06-07T21:36:38.283Z,2.65
2019-06-07T21:39:08.378Z,4.83
2019-06-07T21:41:38.091Z,5.35
2019-06-07T21:44:08.224Z,5.85
2019-06-07T21:46:37.826Z,4.85
2019-06-07T21:49:08.510Z,4.05
2019-06-07T21:51:38.019Z,3.00
2019-06-07T21:54:10.041Z,5.50
2019-06-07T21:56:38.874Z,4.55
2019-06-07T21:59:09.345Z,7.33
2019-06-07T22:01:39.000Z,4.17
2019-06-07T22:04:09.633Z,2.52
2019-06-07T22:06:39.248Z,4.30
2019-06-07T22:09:10.003Z,4.10
2019-06-07T22:11:40.042Z,3.72
2019-06-07T22:14:10.449Z,4.33
2019-06-07T22:16:40.121Z,3.60
2019-06-07T22:19:10.792Z,3.65
2019-06-07T22:21:40.355Z,5.62
2019-06-07T22:24:10.967Z,4.05
2019-06-07T22:26:40.538Z,3.40
2019-06-07T22:29:10.306Z,2.33
2019-06-07T22:31:39.981Z,1.87
2019-06-07T22:34:10.684Z,2.52
2019-06-07T22:36:40.253Z,5.20
2019-06-07T22:39:09.780Z,2.67
2019-06-07T22:41:39.216Z,2.87
2019-06-07T22:44:08.764Z,4.72
2019-06-07T22:46:38.324Z,2.50
2019-06-07T22:49:09.171Z,5.37
2019-06-07T22:51:38.802Z,4.92
2019-06-07T22:54:09.374Z,3.62
2019-06-07T22:56:53.056Z,3.62
2019-06-07T22:59:22.576Z,3.15
2019-06-07T23:01:52.125Z,3.52
2019-06-07T23:04:21.718Z,3.10
2019-06-07T23:06:51.242Z,4.47
2019-06-07T23:09:20.788Z,3.83
2019-06-07T23:11:50.371Z,2.87
2019-06-07T23:14:19.909Z,2.52
2019-06-07T23:16:55.562Z,1.85
2019-06-07T23:19:20.657Z,2.27
2019-06-07T23:21:50.321Z,3.12
2019-06-07T23:24:21.455Z,6.58
2019-06-07T23:26:51.188Z,3.08
2019-06-07T23:29:20.763Z,3.58
2019-06-07T23:31:50.350Z,3.22
2019-06-07T23:34:21.037Z,3.67
2019-06-07T23:36:50.634Z,3.20
2019-06-07T23:39:21.945Z,4.25
2019-06-07T23:41:51.424Z,3.17
2019-06-07T23:44:21.483Z,6.22
2019-06-07T23:46:51.079Z,2.10
2019-06-07T23:49:23.093Z,4.30
2019-06-07T23:51:55.447Z,4.80
2019-06-07T23:54:26.336Z,2.17
2019-06-07T23:56:55.797Z,3.45
2019-06-07T23:59:25.422Z,4.42
